sensor_id;sensor_type;location;lat;lon;timestamp;pressure;altitude;pressure_sealevel;temperature;humidity
4705;BME280;2366;51.332;6.610;2023-03-13T00:01:11;100268.66;;;14.44;62.46
4705;BME280;2366;51.332;6.610;2023-03-13T00:03:37;100267.69;;;14.45;62.81
4705;BME280;2366;51.332;6.610;2023-03-13T00:06:03;100260.38;;;14.26;63.53
4705;BME280;2366;51.332;6.610;2023-03-13T00:08:28;100253.81;;;14.30;63.89
4705;BME280;2366;51.332;6.610;2023-03-13T00:10:54;100246.03;;;14.38;63.64
4705;BME280;2366;51.332;6.610;2023-03-13T00:13:20;100257.03;;;14.45;63.43
4705;BME280;2366;51.332;6.610;2023-03-13T00:15:46;100241.63;;;14.49;63.40
4705;BME280;2366;51.332;6.610;2023-03-13T00:18:11;100219.28;;;14.50;63.33
4705;BME280;2366;51.332;6.610;2023-03-13T00:20:37;100222.34;;;14.45;63.71
4705;BME280;2366;51.332;6.610;2023-03-13T00:23:02;100219.41;;;14.48;63.50
4705;BME280;2366;51.332;6.610;2023-03-13T00:25:28;100221.50;;;14.45;63.98
4705;BME280;2366;51.332;6.610;2023-03-13T00:27:53;100207.47;;;14.43;63.76
4705;BME280;2366;51.332;6.610;2023-03-13T00:30:19;100208.69;;;14.38;64.27
4705;BME280;2366;51.332;6.610;2023-03-13T00:32:45;100212.06;;;14.41;64.10
4705;BME280;2366;51.332;6.610;2023-03-13T00:35:14;100205.44;;;14.35;64.42
4705;BME280;2366;51.332;6.610;2023-03-13T00:37:40;100201.66;;;14.37;64.54
4705;BME280;2366;51.332;6.610;2023-03-13T00:40:06;100205.19;;;14.38;64.66
4705;BME280;2366;51.332;6.610;2023-03-13T00:42:33;100194.25;;;14.41;64.98
4705;BME280;2366;51.332;6.610;2023-03-13T00:44:58;100189.03;;;14.39;65.25
4705;BME280;2366;51.332;6.610;2023-03-13T00:47:24;100194.19;;;14.31;65.83
4705;BME280;2366;51.332;6.610;2023-03-13T00:49:49;100181.50;;;14.24;66.44
4705;BME280;2366;51.332;6.610;2023-03-13T00:52:15;100175.41;;;14.12;67.39
4705;BME280;2366;51.332;6.610;2023-03-13T00:54:40;100168.66;;;14.08;68.05
4705;BME280;2366;51.332;6.610;2023-03-13T00:57:05;100164.75;;;14.12;68.23
4705;BME280;2366;51.332;6.610;2023-03-13T00:59:31;100163.88;;;14.11;68.61
4705;BME280;2366;51.332;6.610;2023-03-13T01:01:56;100158.22;;;14.05;69.09
4705;BME280;2366;51.332;6.610;2023-03-13T01:04:22;100149.41;;;14.04;69.53
4705;BME280;2366;51.332;6.610;2023-03-13T01:06:47;100135.63;;;13.99;70.02
4705;BME280;2366;51.332;6.610;2023-03-13T01:09:14;100139.84;;;14.02;70.37
4705;BME280;2366;51.332;6.610;2023-03-13T01:11:41;100128.03;;;13.94;70.46
4705;BME280;2366;51.332;6.610;2023-03-13T01:14:10;100128.06;;;14.04;70.43
4705;BME280;2366;51.332;6.610;2023-03-13T01:16:36;100115.34;;;14.08;70.27
4705;BME280;2366;51.332;6.610;2023-03-13T01:19:05;100115.59;;;14.05;70.67
4705;BME280;2366;51.332;6.610;2023-03-13T01:21:31;100114.09;;;14.12;70.68
4705;BME280;2366;51.332;6.610;2023-03-13T01:23:57;100118.44;;;14.13;70.59
4705;BME280;2366;51.332;6.610;2023-03-13T01:26:23;100118.56;;;14.11;70.68
4705;BME280;2366;51.332;6.610;2023-03-13T01:28:49;100120.84;;;14.16;70.78
4705;BME280;2366;51.332;6.610;2023-03-13T01:31:25;100104.28;;;14.12;71.12
4705;BME280;2366;51.332;6.610;2023-03-13T01:33:54;100100.31;;;14.07;71.74
4705;BME280;2366;51.332;6.610;2023-03-13T01:36:20;100103.69;;;14.09;72.00
4705;BME280;2366;51.332;6.610;2023-03-13T01:38:48;100092.13;;;13.98;72.80
4705;BME280;2366;51.332;6.610;2023-03-13T01:41:14;100086.75;;;13.89;74.46
4705;BME280;2366;51.332;6.610;2023-03-13T01:43:39;100084.91;;;13.89;74.94
4705;BME280;2366;51.332;6.610;2023-03-13T01:46:16;100075.81;;;13.92;75.32
4705;BME280;2366;51.332;6.610;2023-03-13T01:51:26;100047.69;;;13.78;76.90
4705;BME280;2366;51.332;6.610;2023-03-13T01:54:00;100059.06;;;13.80;77.27
4705;BME280;2366;51.332;6.610;2023-03-13T01:59:22;100046.25;;;13.74;78.71
4705;BME280;2366;51.332;6.610;2023-03-13T02:01:52;100033.94;;;13.73;79.45
4705;BME280;2366;51.332;6.610;2023-03-13T02:04:20;100034.69;;;13.85;78.88
4705;BME280;2366;51.332;6.610;2023-03-13T02:06:49;100026.81;;;13.83;78.97
4705;BME280;2366;51.332;6.610;2023-03-13T02:09:19;100020.78;;;13.81;79.75
4705;BME280;2366;51.332;6.610;2023-03-13T02:11:54;100009.56;;;13.77;80.01
4705;BME280;2366;51.332;6.610;2023-03-13T02:14:24;99997.34;;;13.75;80.27
4705;BME280;2366;51.332;6.610;2023-03-13T02:16:51;99992.94;;;13.64;81.16
4705;BME280;2366;51.332;6.610;2023-03-13T02:19:28;99991.31;;;13.73;80.98
4705;BME280;2366;51.332;6.610;2023-03-13T02:24:44;99990.50;;;13.82;81.11
4705;BME280;2366;51.332;6.610;2023-03-13T02:27:13;99985.44;;;13.79;81.09
4705;BME280;2366;51.332;6.610;2023-03-13T02:29:39;99970.00;;;13.73;81.67
4705;BME280;2366;51.332;6.610;2023-03-13T02:32:05;99978.16;;;13.81;81.86
4705;BME280;2366;51.332;6.610;2023-03-13T02:34:32;99969.50;;;13.89;81.12
4705;BME280;2366;51.332;6.610;2023-03-13T02:37:00;99962.88;;;13.83;81.47
4705;BME280;2366;51.332;6.610;2023-03-13T02:39:28;99954.88;;;13.83;82.04
4705;BME280;2366;51.332;6.610;2023-03-13T02:41:56;99957.72;;;13.82;82.84
4705;BME280;2366;51.332;6.610;2023-03-13T02:44:22;99945.09;;;13.84;83.27
4705;BME280;2366;51.332;6.610;2023-03-13T02:46:49;99940.94;;;13.70;84.60
4705;BME280;2366;51.332;6.610;2023-03-13T02:49:27;99946.47;;;13.78;88.87
4705;BME280;2366;51.332;6.610;2023-03-13T02:51:56;99933.25;;;13.67;91.50
4705;BME280;2366;51.332;6.610;2023-03-13T02:54:29;99931.81;;;13.63;94.68
4705;BME280;2366;51.332;6.610;2023-03-13T02:56:59;99924.06;;;13.60;96.67
4705;BME280;2366;51.332;6.610;2023-03-13T02:59:26;99906.41;;;13.59;96.75
4705;BME280;2366;51.332;6.610;2023-03-13T03:01:52;99902.59;;;13.51;96.59
4705;BME280;2366;51.332;6.610;2023-03-13T03:04:26;99897.13;;;13.53;95.95
4705;BME280;2366;51.332;6.610;2023-03-13T03:06:52;99889.22;;;13.72;99.17
4705;BME280;2366;51.332;6.610;2023-03-13T03:09:18;99896.47;;;13.61;97.68
4705;BME280;2366;51.332;6.610;2023-03-13T03:11:44;99908.59;;;13.74;100.00
4705;BME280;2366;51.332;6.610;2023-03-13T03:14:10;99902.44;;;13.74;100.00
4705;BME280;2366;51.332;6.610;2023-03-13T03:16:36;99896.50;;;13.70;100.00
4705;BME280;2366;51.332;6.610;2023-03-13T03:19:02;99898.53;;;13.78;98.70
4705;BME280;2366;51.332;6.610;2023-03-13T03:21:27;99898.53;;;13.78;98.51
4705;BME280;2366;51.332;6.610;2023-03-13T03:23:52;99902.59;;;13.82;99.96
4705;BME280;2366;51.332;6.610;2023-03-13T03:26:18;99893.38;;;13.86;99.50
4705;BME280;2366;51.332;6.610;2023-03-13T03:28:43;99892.06;;;13.81;99.90
4705;BME280;2366;51.332;6.610;2023-03-13T03:31:12;99900.25;;;13.89;100.00
4705;BME280;2366;51.332;6.610;2023-03-13T03:33:38;99893.91;;;13.80;99.29
4705;BME280;2366;51.332;6.610;2023-03-13T03:36:10;99890.47;;;13.99;100.00
4705;BME280;2366;51.332;6.610;2023-03-13T03:38:35;99890.31;;;14.01;100.00
4705;BME280;2366;51.332;6.610;2023-03-13T03:41:04;99891.56;;;13.96;100.00
4705;BME280;2366;51.332;6.610;2023-03-13T03:43:29;99898.06;;;14.13;100.00
4705;BME280;2366;51.332;6.610;2023-03-13T03:45:55;99903.97;;;14.17;100.00
4705;BME280;2366;51.332;6.610;2023-03-13T03:48:20;99900.06;;;14.21;100.00
4705;BME280;2366;51.332;6.610;2023-03-13T03:50:46;99907.75;;;14.24;98.91
4705;BME280;2366;51.332;6.610;2023-03-13T03:53:11;99900.34;;;14.28;99.43
4705;BME280;2366;51.332;6.610;2023-03-13T03:55:36;99899.66;;;14.35;100.00
4705;BME280;2366;51.332;6.610;2023-03-13T03:58:02;99892.06;;;14.31;100.00
4705;BME280;2366;51.332;6.610;2023-03-13T04:00:27;99894.88;;;14.29;98.52
4705;BME280;2366;51.332;6.610;2023-03-13T04:02:53;99884.81;;;14.43;100.00
4705;BME280;2366;51.332;6.610;2023-03-13T04:05:20;99881.44;;;14.50;99.13
4705;BME280;2366;51.332;6.610;2023-03-13T04:07:46;99879.63;;;14.51;96.98
4705;BME280;2366;51.332;6.610;2023-03-13T04:10:12;99876.16;;;14.60;97.25
4705;BME280;2366;51.332;6.610;2023-03-13T04:12:38;99867.97;;;14.52;95.67
4705;BME280;2366;51.332;6.610;2023-03-13T04:15:03;99863.66;;;14.70;94.29
4705;BME280;2366;51.332;6.610;2023-03-13T04:17:29;99854.34;;;14.74;92.98
4705;BME280;2366;51.332;6.610;2023-03-13T04:19:55;99858.31;;;14.70;88.83
4705;BME280;2366;51.332;6.610;2023-03-13T04:22:20;99859.69;;;14.84;88.34
4705;BME280;2366;51.332;6.610;2023-03-13T04:24:46;99845.63;;;14.92;87.28
4705;BME280;2366;51.332;6.610;2023-03-13T04:27:11;99860.50;;;15.04;85.56
4705;BME280;2366;51.332;6.610;2023-03-13T04:29:37;99852.59;;;15.22;85.45
4705;BME280;2366;51.332;6.610;2023-03-13T04:32:02;99856.53;;;15.28;83.71
4705;BME280;2366;51.332;6.610;2023-03-13T04:34:28;99850.31;;;15.37;83.10
4705;BME280;2366;51.332;6.610;2023-03-13T04:36:53;99861.69;;;15.39;82.40
4705;BME280;2366;51.332;6.610;2023-03-13T04:39:19;99853.97;;;15.36;82.00
4705;BME280;2366;51.332;6.610;2023-03-13T04:41:50;99854.25;;;15.43;81.21
4705;BME280;2366;51.332;6.610;2023-03-13T04:44:16;99841.84;;;15.41;80.25
4705;BME280;2366;51.332;6.610;2023-03-13T04:46:41;99847.31;;;15.50;80.16
4705;BME280;2366;51.332;6.610;2023-03-13T04:49:06;99832.81;;;15.52;80.47
4705;BME280;2366;51.332;6.610;2023-03-13T04:51:32;99848.84;;;15.52;80.33
4705;BME280;2366;51.332;6.610;2023-03-13T04:53:57;99832.34;;;15.67;79.54
4705;BME280;2366;51.332;6.610;2023-03-13T04:56:24;99832.19;;;15.68;79.13
4705;BME280;2366;51.332;6.610;2023-03-13T04:58:50;99840.06;;;15.70;78.91
4705;BME280;2366;51.332;6.610;2023-03-13T05:01:16;99836.00;;;15.75;78.67
4705;BME280;2366;51.332;6.610;2023-03-13T05:03:41;99828.97;;;15.74;78.69
4705;BME280;2366;51.332;6.610;2023-03-13T05:06:07;99835.84;;;15.77;78.48
4705;BME280;2366;51.332;6.610;2023-03-13T05:08:32;99826.00;;;15.77;78.24
4705;BME280;2366;51.332;6.610;2023-03-13T05:10:57;99815.41;;;15.86;77.88
4705;BME280;2366;51.332;6.610;2023-03-13T05:13:23;99809.19;;;15.85;77.73
4705;BME280;2366;51.332;6.610;2023-03-13T05:15:48;99802.75;;;15.88;77.48
4705;BME280;2366;51.332;6.610;2023-03-13T05:18:14;99801.19;;;15.85;77.54
4705;BME280;2366;51.332;6.610;2023-03-13T05:20:39;99803.13;;;15.93;77.35
4705;BME280;2366;51.332;6.610;2023-03-13T05:23:04;99791.88;;;15.89;77.11
4705;BME280;2366;51.332;6.610;2023-03-13T05:25:30;99796.97;;;15.82;77.46
4705;BME280;2366;51.332;6.610;2023-03-13T05:27:55;99783.56;;;15.92;77.18
4705;BME280;2366;51.332;6.610;2023-03-13T05:30:20;99777.31;;;16.01;76.59
4705;BME280;2366;51.332;6.610;2023-03-13T05:32:46;99801.06;;;16.05;76.23
4705;BME280;2366;51.332;6.610;2023-03-13T05:35:11;99795.19;;;16.01;76.37
4705;BME280;2366;51.332;6.610;2023-03-13T05:37:37;99801.28;;;15.93;76.50
4705;BME280;2366;51.332;6.610;2023-03-13T05:40:02;99808.69;;;15.99;76.37
4705;BME280;2366;51.332;6.610;2023-03-13T05:42:28;99797.88;;;16.01;76.22
4705;BME280;2366;51.332;6.610;2023-03-13T05:44:53;99819.78;;;16.05;75.92
4705;BME280;2366;51.332;6.610;2023-03-13T05:47:19;99803.31;;;16.09;76.07
4705;BME280;2366;51.332;6.610;2023-03-13T05:49:44;99795.44;;;16.08;75.37
4705;BME280;2366;51.332;6.610;2023-03-13T05:52:10;99801.38;;;16.01;76.22
4705;BME280;2366;51.332;6.610;2023-03-13T05:54:35;99795.09;;;16.11;75.86
4705;BME280;2366;51.332;6.610;2023-03-13T05:57:00;99794.81;;;16.14;75.52
4705;BME280;2366;51.332;6.610;2023-03-13T05:59:26;99803.13;;;16.11;75.87
4705;BME280;2366;51.332;6.610;2023-03-13T06:01:51;99799.06;;;16.07;76.00
4705;BME280;2366;51.332;6.610;2023-03-13T06:04:16;99799.03;;;16.16;75.16
4705;BME280;2366;51.332;6.610;2023-03-13T06:06:42;99802.38;;;16.18;75.13
4705;BME280;2366;51.332;6.610;2023-03-13T06:09:07;99803.22;;;16.19;74.91
4705;BME280;2366;51.332;6.610;2023-03-13T06:11:35;99793.13;;;16.13;74.99
4705;BME280;2366;51.332;6.610;2023-03-13T06:14:00;99793.53;;;16.18;74.72
4705;BME280;2366;51.332;6.610;2023-03-13T06:16:25;99792.75;;;16.26;74.11
4705;BME280;2366;51.332;6.610;2023-03-13T06:18:51;99789.53;;;16.22;74.42
4705;BME280;2366;51.332;6.610;2023-03-13T06:21:16;99783.97;;;16.33;74.00
4705;BME280;2366;51.332;6.610;2023-03-13T06:23:41;99784.81;;;16.34;73.56
4705;BME280;2366;51.332;6.610;2023-03-13T06:26:07;99790.94;;;16.44;73.12
4705;BME280;2366;51.332;6.610;2023-03-13T06:28:32;99780.97;;;16.36;73.47
4705;BME280;2366;51.332;6.610;2023-03-13T06:31:03;99786.25;;;16.46;73.13
4705;BME280;2366;51.332;6.610;2023-03-13T06:33:29;99773.25;;;16.51;72.55
4705;BME280;2366;51.332;6.610;2023-03-13T06:35:55;99792.44;;;16.47;72.71
4705;BME280;2366;51.332;6.610;2023-03-13T06:38:21;99793.97;;;16.49;72.63
4705;BME280;2366;51.332;6.610;2023-03-13T06:40:46;99791.50;;;16.56;72.26
4705;BME280;2366;51.332;6.610;2023-03-13T06:43:11;99806.25;;;16.60;71.77
4705;BME280;2366;51.332;6.610;2023-03-13T06:45:37;99808.00;;;16.69;71.48
4705;BME280;2366;51.332;6.610;2023-03-13T06:48:03;99801.34;;;16.73;71.12
4705;BME280;2366;51.332;6.610;2023-03-13T06:50:28;99812.06;;;16.73;71.02
4705;BME280;2366;51.332;6.610;2023-03-13T06:52:54;99801.19;;;16.75;70.74
4705;BME280;2366;51.332;6.610;2023-03-13T06:55:22;99795.78;;;16.84;70.19
4705;BME280;2366;51.332;6.610;2023-03-13T06:57:51;99791.50;;;16.92;70.04
4705;BME280;2366;51.332;6.610;2023-03-13T07:00:18;99801.19;;;16.93;69.49
4705;BME280;2366;51.332;6.610;2023-03-13T07:02:43;99792.53;;;16.99;69.05
4705;BME280;2366;51.332;6.610;2023-03-13T07:05:09;99800.84;;;16.88;68.78
4705;BME280;2366;51.332;6.610;2023-03-13T07:07:34;99796.25;;;16.80;69.09
4705;BME280;2366;51.332;6.610;2023-03-13T07:09:59;99788.59;;;16.85;68.96
4705;BME280;2366;51.332;6.610;2023-03-13T07:12:25;99781.69;;;17.00;68.55
4705;BME280;2366;51.332;6.610;2023-03-13T07:14:50;99781.69;;;17.09;68.15
4705;BME280;2366;51.332;6.610;2023-03-13T07:17:16;99779.66;;;17.29;67.59
4705;BME280;2366;51.332;6.610;2023-03-13T07:19:41;99763.22;;;17.23;67.23
4705;BME280;2366;51.332;6.610;2023-03-13T07:22:06;99787.25;;;17.15;67.22
4705;BME280;2366;51.332;6.610;2023-03-13T07:24:32;99763.06;;;17.25;67.12
4705;BME280;2366;51.332;6.610;2023-03-13T07:26:57;99763.53;;;17.20;66.71
4705;BME280;2366;51.332;6.610;2023-03-13T07:29:22;99767.41;;;17.26;66.12
4705;BME280;2366;51.332;6.610;2023-03-13T07:31:48;99765.59;;;17.35;65.60
4705;BME280;2366;51.332;6.610;2023-03-13T07:34:13;99754.09;;;17.42;65.44
4705;BME280;2366;51.332;6.610;2023-03-13T07:36:39;99753.25;;;17.42;65.42
4705;BME280;2366;51.332;6.610;2023-03-13T07:39:06;99750.22;;;17.37;65.40
4705;BME280;2366;51.332;6.610;2023-03-13T07:41:31;99755.66;;;17.19;65.47
4705;BME280;2366;51.332;6.610;2023-03-13T07:43:56;99758.91;;;17.31;65.36
4705;BME280;2366;51.332;6.610;2023-03-13T07:46:22;99746.03;;;17.34;64.19
4705;BME280;2366;51.332;6.610;2023-03-13T07:48:48;99758.22;;;17.29;64.57
4705;BME280;2366;51.332;6.610;2023-03-13T07:51:16;99758.94;;;17.39;64.52
4705;BME280;2366;51.332;6.610;2023-03-13T07:53:43;99761.97;;;17.44;64.21
4705;BME280;2366;51.332;6.610;2023-03-13T07:56:11;99769.63;;;17.39;64.34
4705;BME280;2366;51.332;6.610;2023-03-13T07:58:38;99753.41;;;17.40;63.74
4705;BME280;2366;51.332;6.610;2023-03-13T08:01:09;99738.19;;;17.41;64.00
4705;BME280;2366;51.332;6.610;2023-03-13T08:03:35;99749.56;;;17.43;63.24
4705;BME280;2366;51.332;6.610;2023-03-13T08:06:05;99756.94;;;17.41;63.41
4705;BME280;2366;51.332;6.610;2023-03-13T08:08:31;99749.94;;;17.56;63.15
4705;BME280;2366;51.332;6.610;2023-03-13T08:13:26;99763.91;;;17.68;62.57
4705;BME280;2366;51.332;6.610;2023-03-13T08:15:51;99746.53;;;17.80;62.03
4705;BME280;2366;51.332;6.610;2023-03-13T08:18:17;99757.13;;;17.90;61.60
4705;BME280;2366;51.332;6.610;2023-03-13T08:20:42;99749.75;;;17.92;61.37
4705;BME280;2366;51.332;6.610;2023-03-13T08:23:07;99768.84;;;17.97;61.24
4705;BME280;2366;51.332;6.610;2023-03-13T08:25:33;99766.19;;;17.97;61.21
4705;BME280;2366;51.332;6.610;2023-03-13T08:27:58;99767.84;;;17.90;61.13
4705;BME280;2366;51.332;6.610;2023-03-13T08:30:23;99767.66;;;17.83;61.73
4705;BME280;2366;51.332;6.610;2023-03-13T08:32:49;99760.53;;;18.09;61.37
4705;BME280;2366;51.332;6.610;2023-03-13T08:35:14;99761.34;;;18.25;60.80
4705;BME280;2366;51.332;6.610;2023-03-13T08:37:40;99763.84;;;18.02;61.30
4705;BME280;2366;51.332;6.610;2023-03-13T08:40:06;99762.19;;;18.18;60.96
4705;BME280;2366;51.332;6.610;2023-03-13T08:42:36;99766.06;;;18.15;61.06
4705;BME280;2366;51.332;6.610;2023-03-13T08:45:02;99756.97;;;18.08;61.33
4705;BME280;2366;51.332;6.610;2023-03-13T08:47:28;99758.81;;;18.08;61.24
4705;BME280;2366;51.332;6.610;2023-03-13T08:49:53;99764.19;;;18.08;61.53
4705;BME280;2366;51.332;6.610;2023-03-13T08:52:19;99751.13;;;18.04;62.07
4705;BME280;2366;51.332;6.610;2023-03-13T08:54:47;99759.19;;;18.21;61.47
4705;BME280;2366;51.332;6.610;2023-03-13T08:57:12;99755.34;;;18.40;61.21
4705;BME280;2366;51.332;6.610;2023-03-13T08:59:38;99745.44;;;18.40;60.74
4705;BME280;2366;51.332;6.610;2023-03-13T09:02:03;99736.72;;;18.63;60.55
4705;BME280;2366;51.332;6.610;2023-03-13T09:04:28;99741.72;;;18.66;60.32
4705;BME280;2366;51.332;6.610;2023-03-13T09:06:54;99737.53;;;18.80;59.82
4705;BME280;2366;51.332;6.610;2023-03-13T09:09:19;99744.22;;;18.76;60.04
4705;BME280;2366;51.332;6.610;2023-03-13T09:11:44;99731.97;;;18.73;60.65
4705;BME280;2366;51.332;6.610;2023-03-13T09:14:10;99721.56;;;18.95;60.15
4705;BME280;2366;51.332;6.610;2023-03-13T09:16:35;99722.59;;;18.85;60.06
4705;BME280;2366;51.332;6.610;2023-03-13T09:19:01;99718.41;;;18.66;60.71
4705;BME280;2366;51.332;6.610;2023-03-13T09:21:29;99723.09;;;18.64;61.28
4705;BME280;2366;51.332;6.610;2023-03-13T09:23:55;99716.41;;;18.85;61.35
4705;BME280;2366;51.332;6.610;2023-03-13T09:26:21;99726.63;;;18.90;60.97
4705;BME280;2366;51.332;6.610;2023-03-13T09:28:47;99722.22;;;18.97;60.51
4705;BME280;2366;51.332;6.610;2023-03-13T09:31:18;99722.22;;;18.97;60.92
4705;BME280;2366;51.332;6.610;2023-03-13T09:33:45;99716.88;;;18.97;62.33
4705;BME280;2366;51.332;6.610;2023-03-13T09:36:11;99710.03;;;19.25;61.70
4705;BME280;2366;51.332;6.610;2023-03-13T09:38:37;99708.00;;;19.36;61.04
4705;BME280;2366;51.332;6.610;2023-03-13T09:41:13;99699.91;;;19.44;59.93
4705;BME280;2366;51.332;6.610;2023-03-13T09:43:55;99709.97;;;19.42;59.65
4705;BME280;2366;51.332;6.610;2023-03-13T09:49:10;99699.00;;;19.12;61.71
4705;BME280;2366;51.332;6.610;2023-03-13T09:51:38;99702.28;;;18.91;62.16
4705;BME280;2366;51.332;6.610;2023-03-13T09:54:23;99685.59;;;19.12;62.18
4705;BME280;2366;51.332;6.610;2023-03-13T09:56:55;99677.91;;;20.18;59.76
4705;BME280;2366;51.332;6.610;2023-03-13T09:59:40;99689.75;;;20.84;56.75
4705;BME280;2366;51.332;6.610;2023-03-13T10:02:25;99679.06;;;21.93;54.47
4705;BME280;2366;51.332;6.610;2023-03-13T10:05:19;99675.53;;;22.36;52.40
4705;BME280;2366;51.332;6.610;2023-03-13T10:07:42;99655.19;;;21.69;52.36
4705;BME280;2366;51.332;6.610;2023-03-13T10:10:16;99658.84;;;21.31;53.50
4705;BME280;2366;51.332;6.610;2023-03-13T10:12:45;99654.53;;;21.16;53.60
4705;BME280;2366;51.332;6.610;2023-03-13T10:15:38;99655.50;;;21.29;53.62
4705;BME280;2366;51.332;6.610;2023-03-13T10:18:24;99640.34;;;20.92;54.00
4705;BME280;2366;51.332;6.610;2023-03-13T10:20:57;99622.13;;;21.09;54.00
4705;BME280;2366;51.332;6.610;2023-03-13T10:26:03;99647.34;;;21.74;52.55
4705;BME280;2366;51.332;6.610;2023-03-13T10:28:28;99625.63;;;22.04;51.25
4705;BME280;2366;51.332;6.610;2023-03-13T10:31:05;99639.81;;;22.12;50.55
4705;BME280;2366;51.332;6.610;2023-03-13T10:33:36;99620.91;;;22.34;50.01
4705;BME280;2366;51.332;6.610;2023-03-13T10:36:12;99628.16;;;22.12;49.98
4705;BME280;2366;51.332;6.610;2023-03-13T10:38:47;99632.34;;;22.14;50.14
4705;BME280;2366;51.332;6.610;2023-03-13T10:41:39;99616.50;;;22.05;50.13
4705;BME280;2366;51.332;6.610;2023-03-13T10:44:13;99606.31;;;21.79;50.75
4705;BME280;2366;51.332;6.610;2023-03-13T10:46:42;99600.59;;;21.88;50.65
4705;BME280;2366;51.332;6.610;2023-03-13T10:49:23;99611.88;;;21.99;50.25
4705;BME280;2366;51.332;6.610;2023-03-13T10:51:57;99606.59;;;22.40;49.81
4705;BME280;2366;51.332;6.610;2023-03-13T10:54:25;99601.06;;;22.48;49.13
4705;BME280;2366;51.332;6.610;2023-03-13T10:56:52;99597.53;;;22.48;48.67
4705;BME280;2366;51.332;6.610;2023-03-13T10:59:31;99586.84;;;22.33;49.35
4705;BME280;2366;51.332;6.610;2023-03-13T11:02:00;99583.34;;;22.39;48.87
4705;BME280;2366;51.332;6.610;2023-03-13T11:04:34;99581.56;;;22.53;47.87
4705;BME280;2366;51.332;6.610;2023-03-13T11:07:31;99573.41;;;22.46;47.87
4705;BME280;2366;51.332;6.610;2023-03-13T11:10:13;99562.50;;;22.26;48.00
4705;BME280;2366;51.332;6.610;2023-03-13T11:12:46;99568.34;;;22.30;48.36
4705;BME280;2366;51.332;6.610;2023-03-13T11:15:17;99567.25;;;22.24;48.39
4705;BME280;2366;51.332;6.610;2023-03-13T11:18:01;99580.41;;;22.34;47.94
4705;BME280;2366;51.332;6.610;2023-03-13T11:20:34;99570.28;;;21.86;49.07
4705;BME280;2366;51.332;6.610;2023-03-13T11:23:13;99560.34;;;22.43;47.67
4705;BME280;2366;51.332;6.610;2023-03-13T11:26:35;99563.56;;;22.67;47.02
4705;BME280;2366;51.332;6.610;2023-03-13T11:31:28;99523.06;;;22.25;47.33
4705;BME280;2366;51.332;6.610;2023-03-13T11:34:10;99528.25;;;22.27;45.96
4705;BME280;2366;51.332;6.610;2023-03-13T11:36:51;99525.28;;;22.22;44.89
4705;BME280;2366;51.332;6.610;2023-03-13T11:40:31;99520.47;;;22.45;44.85
4705;BME280;2366;51.332;6.610;2023-03-13T11:51:00;99517.88;;;22.72;43.52
4705;BME280;2366;51.332;6.610;2023-03-13T11:56:38;99494.31;;;22.46;44.46
4705;BME280;2366;51.332;6.610;2023-03-13T12:02:30;99490.19;;;22.22;44.46
4705;BME280;2366;51.332;6.610;2023-03-13T12:05:00;99479.91;;;22.32;44.18
4705;BME280;2366;51.332;6.610;2023-03-13T12:07:40;99473.97;;;22.15;44.06
4705;BME280;2366;51.332;6.610;2023-03-13T12:10:40;99476.22;;;22.11;44.63
4705;BME280;2366;51.332;6.610;2023-03-13T12:13:26;99467.34;;;22.18;44.33
4705;BME280;2366;51.332;6.610;2023-03-13T12:15:59;99462.34;;;22.14;45.09
4705;BME280;2366;51.332;6.610;2023-03-13T12:18:38;99450.59;;;22.29;45.46
4705;BME280;2366;51.332;6.610;2023-03-13T12:24:38;99451.59;;;22.69;44.58
4705;BME280;2366;51.332;6.610;2023-03-13T12:26:42;99455.78;;;22.79;44.40
4705;BME280;2366;51.332;6.610;2023-03-13T12:29:27;99440.72;;;22.43;44.70
4705;BME280;2366;51.332;6.610;2023-03-13T12:32:08;99441.91;;;22.33;45.49
4705;BME280;2366;51.332;6.610;2023-03-13T12:37:45;99450.31;;;22.17;44.61
4705;BME280;2366;51.332;6.610;2023-03-13T12:40:22;99432.72;;;22.21;45.32
4705;BME280;2366;51.332;6.610;2023-03-13T12:45:31;99424.19;;;22.72;44.27
4705;BME280;2366;51.332;6.610;2023-03-13T12:48:26;99419.63;;;22.66;44.30
4705;BME280;2366;51.332;6.610;2023-03-13T12:51:13;99415.19;;;22.45;43.93
4705;BME280;2366;51.332;6.610;2023-03-13T12:59:15;99415.44;;;22.70;42.99
4705;BME280;2366;51.332;6.610;2023-03-13T13:01:49;99393.25;;;22.75;42.93
4705;BME280;2366;51.332;6.610;2023-03-13T13:04:18;99382.66;;;22.87;42.82
4705;BME280;2366;51.332;6.610;2023-03-13T13:09:19;99380.56;;;22.69;43.28
4705;BME280;2366;51.332;6.610;2023-03-13T13:11:47;99394.59;;;22.38;44.10
4705;BME280;2366;51.332;6.610;2023-03-13T13:16:49;99364.31;;;22.49;43.63
4705;BME280;2366;51.332;6.610;2023-03-13T13:27:46;99356.28;;;22.95;43.87
4705;BME280;2366;51.332;6.610;2023-03-13T13:32:46;99348.22;;;23.09;43.22
4705;BME280;2366;51.332;6.610;2023-03-13T13:37:40;99361.06;;;22.93;42.86
4705;BME280;2366;51.332;6.610;2023-03-13T13:40:18;99363.97;;;22.98;43.04
4705;BME280;2366;51.332;6.610;2023-03-13T13:43:04;99358.34;;;22.87;43.54
4705;BME280;2366;51.332;6.610;2023-03-13T13:45:37;99350.84;;;22.49;44.14
4705;BME280;2366;51.332;6.610;2023-03-13T13:48:26;99340.63;;;22.44;44.39
4705;BME280;2366;51.332;6.610;2023-03-13T13:53:59;99328.59;;;22.47;44.21
4705;BME280;2366;51.332;6.610;2023-03-13T13:56:28;99326.13;;;22.65;44.21
4705;BME280;2366;51.332;6.610;2023-03-13T14:04:29;99355.22;;;22.08;45.57
4705;BME280;2366;51.332;6.610;2023-03-13T14:07:00;99353.72;;;21.92;45.70
4705;BME280;2366;51.332;6.610;2023-03-13T14:12:39;99318.34;;;21.74;46.99
4705;BME280;2366;51.332;6.610;2023-03-13T14:15:18;99316.72;;;21.80;47.12
4705;BME280;2366;51.332;6.610;2023-03-13T14:20:19;99310.63;;;22.12;46.90
4705;BME280;2366;51.332;6.610;2023-03-13T14:22:49;99300.53;;;22.28;46.48
4705;BME280;2366;51.332;6.610;2023-03-13T14:25:15;99295.34;;;22.33;46.33
4705;BME280;2366;51.332;6.610;2023-03-13T14:27:42;99301.06;;;22.10;46.40
4705;BME280;2366;51.332;6.610;2023-03-13T14:30:08;99302.66;;;21.91;47.06
4705;BME280;2366;51.332;6.610;2023-03-13T14:32:34;99293.47;;;21.79;47.46
4705;BME280;2366;51.332;6.610;2023-03-13T14:35:00;99302.06;;;21.54;48.13
4705;BME280;2366;51.332;6.610;2023-03-13T14:37:35;99303.28;;;21.45;48.58
4705;BME280;2366;51.332;6.610;2023-03-13T14:40:08;99319.22;;;21.46;48.52
4705;BME280;2366;51.332;6.610;2023-03-13T14:42:43;99315.44;;;21.41;49.15
4705;BME280;2366;51.332;6.610;2023-03-13T14:45:14;99315.31;;;21.56;49.17
4705;BME280;2366;51.332;6.610;2023-03-13T14:47:40;99310.44;;;21.72;48.41
4705;BME280;2366;51.332;6.610;2023-03-13T14:50:11;99312.13;;;21.73;48.23